createdAt,value
2022-11-21T00:01:21.642Z,-3.50
2022-11-21T00:03:49.032Z,-3.50
2022-11-21T00:06:16.551Z,-3.50
2022-11-21T00:08:48.629Z,-3.50
2022-11-21T00:11:15.948Z,-3.50
2022-11-21T00:13:43.559Z,-3.50
2022-11-21T00:16:13.992Z,-3.50
2022-11-21T00:18:41.741Z,-3.50
2022-11-21T00:21:12.522Z,-3.50
2022-11-21T00:23:39.466Z,-3.50
2022-11-21T00:26:08.476Z,-3.50
2022-11-21T00:28:36.008Z,-3.50
2022-11-21T00:31:04.109Z,-3.60
2022-11-21T00:33:31.678Z,-3.60
2022-11-21T00:35:58.642Z,-3.60
2022-11-21T00:38:27.164Z,-3.60
2022-11-21T00:40:54.079Z,-3.50
2022-11-21T00:43:20.971Z,-3.60
2022-11-21T00:45:47.883Z,-3.60
2022-11-21T00:48:14.806Z,-3.60
2022-11-21T00:50:41.736Z,-3.60
2022-11-21T00:53:08.676Z,-3.60
2022-11-21T00:55:37.434Z,-3.60
2022-11-21T00:58:04.325Z,-3.60
2022-11-21T01:00:31.247Z,-3.60
2022-11-21T01:02:58.207Z,-3.60
2022-11-21T01:05:25.404Z,-3.60
2022-11-21T01:07:52.338Z,-3.60
2022-11-21T01:10:19.324Z,-3.60
2022-11-21T01:12:46.253Z,-3.60
2022-11-21T03:16:00.059Z,-3.70
2022-11-21T03:18:26.990Z,-3.70
2022-11-21T03:20:53.888Z,-3.70
2022-11-21T03:23:20.802Z,-3.70
2022-11-21T03:25:47.853Z,-3.70
2022-11-21T03:28:14.746Z,-3.70
2022-11-21T03:30:41.682Z,-3.80
2022-11-21T03:33:08.610Z,-3.70
2022-11-21T03:35:35.536Z,-3.80
2022-11-21T03:38:02.416Z,-3.70
2022-11-21T03:40:29.339Z,-3.70
2022-11-21T03:42:56.242Z,-3.70
2022-11-21T03:45:23.155Z,-3.70
2022-11-21T03:47:50.057Z,-3.70
2022-11-21T03:50:19.116Z,-3.70
2022-11-21T03:52:46.076Z,-3.70
2022-11-21T03:55:13.034Z,-3.70
2022-11-21T03:57:40.160Z,-3.80
2022-11-21T04:00:07.886Z,-3.80
2022-11-21T04:02:35.013Z,-3.80
2022-11-21T04:05:02.179Z,-3.80
2022-11-21T04:07:30.560Z,-3.70
2022-11-21T04:09:58.006Z,-3.70
2022-11-21T04:12:25.100Z,-3.80
2022-11-21T04:14:52.230Z,-3.80
2022-11-21T04:17:19.427Z,-3.80
2022-11-21T04:19:46.554Z,-3.80
2022-11-21T04:22:13.689Z,-3.80
2022-11-21T04:24:40.850Z,-3.80
2022-11-21T04:27:07.966Z,-3.80
2022-11-21T04:29:35.089Z,-3.80
2022-11-21T04:32:02.218Z,-3.80
2022-11-21T04:34:29.603Z,-3.80
2022-11-21T04:36:56.826Z,-3.80
2022-11-21T04:39:24.237Z,-3.80
2022-11-21T04:41:51.461Z,-3.80
2022-11-21T04:44:18.586Z,-3.80
2022-11-21T04:46:45.500Z,-3.80
2022-11-21T04:49:12.396Z,-3.80
2022-11-21T04:51:39.296Z,-3.80
2022-11-21T04:54:06.210Z,-3.70
2022-11-21T04:56:33.129Z,-3.80
2022-11-21T04:59:00.068Z,-3.80
2022-11-21T05:01:27.048Z,-3.70
2022-11-21T05:03:53.956Z,-3.80
2022-11-21T05:06:20.922Z,-3.80
2022-11-21T05:08:51.757Z,-3.80
2022-11-21T05:11:39.221Z,-3.80
2022-11-21T05:14:06.130Z,-3.80
2022-11-21T05:16:34.049Z,-3.80
2022-11-21T05:19:01.276Z,-3.80
2022-11-21T05:21:28.623Z,-3.80
2022-11-21T05:23:55.815Z,-3.80
2022-11-21T05:26:22.928Z,-3.70
2022-11-21T05:28:50.138Z,-3.70
2022-11-21T05:31:17.258Z,-3.80
2022-11-21T05:33:44.382Z,-3.80
2022-11-21T05:36:11.780Z,-3.70
2022-11-21T05:38:39.005Z,-3.70
2022-11-21T05:41:06.130Z,-3.70
2022-11-21T05:43:48.247Z,-3.70
2022-11-21T05:46:18.394Z,-3.70
2022-11-21T05:48:46.390Z,-3.70
2022-11-21T05:51:14.227Z,-3.70
2022-11-21T05:53:41.954Z,-3.70
2022-11-21T05:56:11.570Z,-3.70
2022-11-21T05:58:39.535Z,-3.70
2022-11-21T06:01:08.012Z,-3.70
2022-11-21T06:03:38.763Z,-3.70
2022-11-21T06:06:23.694Z,-3.70
2022-11-21T06:08:52.366Z,-3.70
2022-11-21T06:11:19.826Z,-3.70
2022-11-21T06:13:46.938Z,-3.60
2022-11-21T06:16:19.960Z,-3.60
2022-11-21T06:18:58.447Z,-3.60
2022-11-21T06:21:28.656Z,-3.60
2022-11-21T06:23:57.833Z,-3.60
2022-11-21T06:26:27.190Z,-3.60
2022-11-21T06:28:55.063Z,-3.60
2022-11-21T06:31:25.075Z,-3.60
2022-11-21T06:33:54.281Z,-3.60
2022-11-21T06:36:21.924Z,-3.60
2022-11-21T06:38:49.511Z,-3.60
2022-11-21T06:41:18.919Z,-3.60
2022-11-21T06:43:46.835Z,-3.60
2022-11-21T06:46:15.317Z,-3.50
2022-11-21T06:48:43.917Z,-3.50
2022-11-21T06:51:26.345Z,-3.50
2022-11-21T06:53:58.618Z,-3.50
2022-11-21T06:56:30.707Z,-3.50
2022-11-21T06:58:58.983Z,-3.40
2022-11-21T07:01:26.638Z,-3.40
2022-11-21T07:03:54.277Z,-3.40
2022-11-21T07:06:22.226Z,-3.40
2022-11-21T07:09:17.450Z,-3.40
2022-11-21T07:11:40.987Z,-3.30
2022-11-21T07:14:09.431Z,-3.30
2022-11-21T07:16:37.237Z,-3.30
2022-11-21T07:19:04.546Z,-3.30
2022-11-21T07:21:31.660Z,-3.30
2022-11-21T07:23:58.874Z,-3.30
2022-11-21T07:26:26.007Z,-3.30
2022-11-21T07:28:53.169Z,-3.30
2022-11-21T07:31:20.154Z,-3.30
2022-11-21T07:33:48.479Z,-3.30
2022-11-21T07:36:15.685Z,-3.30
2022-11-21T07:38:42.858Z,-3.20
2022-11-21T07:41:10.388Z,-3.20
2022-11-21T07:43:37.445Z,-3.20
2022-11-21T07:46:04.606Z,-3.10
2022-11-21T07:48:31.746Z,-3.10
2022-11-21T07:50:58.930Z,-3.00
2022-11-21T07:53:25.904Z,-3.00
2022-11-21T07:55:53.239Z,-2.90
2022-11-21T07:58:20.140Z,-2.90
2022-11-21T08:00:47.088Z,-2.90
2022-11-21T08:03:14.091Z,-2.90
2022-11-21T08:05:42.744Z,-2.80
2022-11-21T08:08:11.625Z,-2.90
2022-11-21T08:10:40.913Z,-2.90
2022-11-21T08:13:07.862Z,-2.80
2022-11-21T08:15:35.520Z,-2.80
2022-11-21T08:18:28.669Z,-2.80
2022-11-21T08:20:56.152Z,-2.80
2022-11-21T08:23:23.042Z,-2.80
2022-11-21T08:25:51.960Z,-2.80
2022-11-21T08:28:18.878Z,-2.80
2022-11-21T08:30:45.992Z,-2.90
2022-11-21T08:33:20.335Z,-2.90
2022-11-21T08:35:47.347Z,-2.80
2022-11-21T08:38:14.336Z,-2.80
2022-11-21T08:40:41.265Z,-2.80
2022-11-21T08:43:09.730Z,-2.70
2022-11-21T08:45:38.604Z,-2.80
2022-11-21T08:48:11.222Z,-2.70
2022-11-21T08:50:38.360Z,-2.70
2022-11-21T08:53:05.301Z,-2.70
2022-11-21T08:55:32.277Z,-2.70
2022-11-21T08:57:59.519Z,-2.60
2022-11-21T09:00:26.576Z,-2.60
2022-11-21T09:02:53.581Z,-2.60
2022-11-21T09:05:20.519Z,-2.50
2022-11-21T09:07:48.760Z,-2.50
2022-11-21T09:10:16.293Z,-2.50
2022-11-21T09:12:43.748Z,-2.50
2022-11-21T09:15:29.918Z,-2.50
2022-11-21T09:18:04.681Z,-2.50
2022-11-21T09:20:39.364Z,-2.50
2022-11-21T09:23:08.307Z,-2.40
2022-11-21T09:25:35.333Z,-2.40
2022-11-21T09:28:03.785Z,-2.40
2022-11-21T09:30:30.825Z,-2.40
2022-11-21T09:33:06.234Z,-2.40
2022-11-21T09:35:33.288Z,-2.30
2022-11-21T09:38:00.699Z,-2.30
2022-11-21T09:40:30.925Z,-2.30
2022-11-21T09:43:20.052Z,-2.30
2022-11-21T09:45:49.904Z,-2.30
2022-11-21T09:48:30.533Z,-2.30
2022-11-21T09:51:06.606Z,-2.30
2022-11-21T09:53:58.811Z,-2.30
2022-11-21T09:56:29.164Z,-2.30
2022-11-21T09:59:20.615Z,-2.40
2022-11-21T10:01:47.955Z,-2.40
2022-11-21T10:04:14.939Z,-2.30
2022-11-21T10:07:00.532Z,-2.30
2022-11-21T10:09:39.106Z,-2.30
2022-11-21T10:12:39.914Z,-2.30
2022-11-21T10:15:41.062Z,-2.30
2022-11-21T10:18:23.046Z,-2.30
2022-11-21T10:20:56.813Z,-2.30
2022-11-21T10:23:52.191Z,-2.40
2022-11-21T10:26:50.042Z,-2.30
2022-11-21T10:29:43.267Z,-2.30
2022-11-21T10:32:29.258Z,-2.20
2022-11-21T10:34:59.896Z,-2.20
2022-11-21T10:37:38.769Z,-2.20
2022-11-21T10:40:38.325Z,-2.10
2022-11-21T10:43:45.111Z,-2.10
2022-11-21T10:46:12.258Z,-2.20
2022-11-21T10:48:39.443Z,-2.30
2022-11-21T10:51:36.196Z,-2.30
2022-11-21T10:54:28.913Z,-2.30
2022-11-21T10:57:14.152Z,-2.30
2022-11-21T10:59:41.362Z,-2.20
2022-11-21T11:02:14.551Z,-2.20
2022-11-21T11:04:49.111Z,-2.10
2022-11-21T11:07:27.474Z,-2.10
2022-11-21T11:10:27.522Z,-2.00
2022-11-21T11:13:38.675Z,-1.90
2022-11-21T11:16:10.016Z,-2.00
2022-11-21T11:19:00.325Z,-1.90
2022-11-21T11:21:36.096Z,-1.90
2022-11-21T11:24:12.108Z,-1.90
2022-11-21T11:26:48.813Z,-1.90
2022-11-21T11:29:38.894Z,-1.80
2022-11-21T11:32:19.423Z,-1.80
2022-11-21T11:34:51.190Z,-1.80
2022-11-21T11:37:40.032Z,-1.90
2022-11-21T11:40:37.005Z,-1.80
2022-11-21T11:43:34.497Z,-1.70
2022-11-21T11:46:48.762Z,-1.70
2022-11-21T11:50:01.463Z,-1.60
2022-11-21T11:52:36.284Z,-1.60
2022-11-21T11:55:08.510Z,-1.70
2022-11-21T11:57:37.170Z,-1.80
2022-11-21T12:00:29.847Z,-1.80
2022-11-21T12:03:24.230Z,-1.80
2022-11-21T12:06:57.426Z,-1.90
2022-11-21T12:09:59.318Z,-1.80
2022-11-21T12:12:26.191Z,-1.80
2022-11-21T12:15:11.857Z,-1.80
2022-11-21T12:18:14.913Z,-1.80
2022-11-21T12:21:03.361Z,-1.90
2022-11-21T12:23:47.663Z,-1.90
2022-11-21T12:26:20.632Z,-1.90
2022-11-21T12:29:15.223Z,-1.90
2022-11-21T12:32:14.994Z,-2.00
2022-11-21T12:35:04.443Z,-2.00
2022-11-21T12:37:47.179Z,-2.00
2022-11-21T12:40:32.789Z,-1.90
2022-11-21T12:43:11.623Z,-2.00
2022-11-21T12:45:55.336Z,-2.00
2022-11-21T12:49:12.979Z,-2.00
2022-11-21T12:52:27.336Z,-2.00
2022-11-21T12:55:03.232Z,-2.00
2022-11-21T12:57:44.922Z,-2.10
2022-11-21T13:00:38.206Z,-2.10
2022-11-21T13:03:08.150Z,-2.10
2022-11-21T13:05:40.517Z,-2.10
2022-11-21T13:08:13.501Z,-2.20
2022-11-21T13:10:48.675Z,-2.20
2022-11-21T13:13:26.738Z,-2.20
2022-11-21T13:16:06.901Z,-2.20
2022-11-21T13:18:44.172Z,-2.20
2022-11-21T13:21:42.146Z,-2.30
2022-11-21T13:24:09.809Z,-2.30
2022-11-21T13:26:36.682Z,-2.30
2022-11-21T13:29:16.169Z,-2.40
2022-11-21T13:31:43.699Z,-2.40
2022-11-21T13:34:38.452Z,-2.40
2022-11-21T13:37:05.999Z,-2.40
2022-11-21T13:39:35.016Z,-2.50
2022-11-21T13:42:23.670Z,-2.50
2022-11-21T13:44:51.343Z,-2.50
2022-11-21T13:47:56.837Z,-2.50
2022-11-21T13:50:56.014Z,-2.60
2022-11-21T13:54:01.302Z,-2.60
2022-11-21T13:56:31.398Z,-2.60
2022-11-21T13:59:19.719Z,-2.70
2022-11-21T14:01:59.894Z,-2.70
2022-11-21T14:04:54.368Z,-2.70
2022-11-21T14:07:31.061Z,-2.70
2022-11-21T14:10:01.594Z,-2.70
2022-11-21T14:12:44.084Z,-2.70
2022-11-21T14:15:52.910Z,-2.70
2022-11-21T14:18:24.733Z,-2.70
2022-11-21T14:20:57.459Z,-2.70
2022-11-21T14:23:27.026Z,-2.70
2022-11-21T14:26:02.113Z,-2.70
2022-11-21T14:28:34.388Z,-2.70
2022-11-21T14:31:12.726Z,-2.80
2022-11-21T14:33:41.527Z,-2.80
2022-11-21T14:36:18.974Z,-2.80
2022-11-21T14:38:57.787Z,-2.80
2022-11-21T14:41:38.342Z,-2.80
2022-11-21T14:44:14.673Z,-2.80
2022-11-21T14:46:42.914Z,-2.90
2022-11-21T14:49:21.731Z,-2.90
2022-11-21T14:51:53.538Z,-2.90
2022-11-21T14:54:30.362Z,-2.90
2022-11-21T14:57:07.854Z,-2.90
2022-11-21T14:59:43.043Z,-2.90
2022-11-21T15:02:16.983Z,-2.90
2022-11-21T15:04:44.989Z,-2.80
2022-11-21T15:07:32.042Z,-2.90
2022-11-21T15:13:03.126Z,-2.90
2022-11-21T15:15:47.229Z,-2.90
2022-11-21T15:18:27.914Z,-2.90
2022-11-21T15:21:04.285Z,-2.90
2022-11-21T15:23:33.926Z,-2.90
2022-11-21T15:26:01.805Z,-2.90
2022-11-21T15:28:30.276Z,-2.90
2022-11-21T15:31:16.324Z,-2.90
2022-11-21T15:37:04.937Z,-2.90
2022-11-21T15:39:32.890Z,-2.90
2022-11-21T15:42:33.708Z,-2.90
2022-11-21T15:45:04.173Z,-2.90
2022-11-21T15:47:31.132Z,-2.90
2022-11-21T15:49:58.119Z,-2.90
2022-11-21T15:52:25.126Z,-2.90
2022-11-21T15:54:52.154Z,-2.90
2022-11-21T15:59:46.933Z,-2.80
2022-11-21T16:02:15.002Z,-2.90
2022-11-21T16:04:42.467Z,-2.90
2022-11-21T16:07:09.489Z,-2.90
2022-11-21T16:09:48.009Z,-2.90
2022-11-21T16:12:15.077Z,-2.90
2022-11-21T16:14:43.973Z,-2.90
2022-11-21T16:17:10.997Z,-2.90
2022-11-21T16:19:37.954Z,-2.90
2022-11-21T16:22:04.937Z,-2.90
2022-11-21T16:24:31.848Z,-2.90
2022-11-21T16:27:10.074Z,-2.90
2022-11-21T16:29:36.984Z,-2.90
2022-11-21T16:32:03.997Z,-2.90
2022-11-21T16:34:32.788Z,-2.90
2022-11-21T16:37:04.232Z,-2.90
2022-11-21T16:39:34.228Z,-2.90
2022-11-21T16:42:01.526Z,-2.90
2022-11-21T16:44:31.174Z,-2.90
2022-11-21T16:47:00.204Z,-2.90
2022-11-21T16:49:30.951Z,-2.90
2022-11-21T16:51:59.061Z,-2.90
2022-11-21T16:54:25.957Z,-2.90
2022-11-21T16:56:52.846Z,-2.90
2022-11-21T16:59:19.735Z,-2.90
2022-11-21T17:01:47.421Z,-2.90
2022-11-21T17:04:17.474Z,-2.90
2022-11-21T17:06:45.544Z,-3.00
2022-11-21T17:09:12.557Z,-3.00
2022-11-21T17:11:39.497Z,-3.00
2022-11-21T17:14:07.236Z,-3.10
2022-11-21T17:16:35.752Z,-3.10
2022-11-21T17:19:04.363Z,-3.10
2022-11-21T17:21:32.166Z,-3.10
2022-11-21T17:23:59.289Z,-3.20
2022-11-21T17:26:29.709Z,-3.20
2022-11-21T17:29:01.318Z,-3.20
2022-11-21T17:31:28.342Z,-3.20
2022-11-21T17:34:00.941Z,-3.20
2022-11-21T17:36:30.268Z,-3.20
2022-11-21T17:38:57.343Z,-3.30
2022-11-21T17:41:25.354Z,-3.30
2022-11-21T17:43:57.027Z,-3.40
2022-11-21T17:46:25.666Z,-3.40
2022-11-21T17:48:57.133Z,-3.40
2022-11-21T17:51:35.419Z,-3.40
2022-11-21T17:54:02.710Z,-3.40
2022-11-21T17:56:33.412Z,-3.40
2022-11-21T17:59:00.886Z,-3.30
2022-11-21T18:01:28.523Z,-3.40
2022-11-21T18:03:59.879Z,-3.30
2022-11-21T18:06:29.117Z,-3.30
2022-11-21T18:08:58.636Z,-3.30
2022-11-21T18:11:32.062Z,-3.30
2022-11-21T18:14:03.201Z,-3.20
2022-11-21T18:16:32.477Z,-3.20
2022-11-21T18:18:59.764Z,-3.20
2022-11-21T18:21:29.145Z,-3.20
2022-11-21T18:23:59.690Z,-3.10
2022-11-21T18:26:32.281Z,-3.10
2022-11-21T18:31:48.957Z,-3.10
2022-11-21T18:34:15.869Z,-3.10
2022-11-21T18:36:42.838Z,-3.00
2022-11-21T18:39:14.538Z,-3.00
2022-11-21T18:41:42.239Z,-3.00
2022-11-21T18:44:10.161Z,-2.90
2022-11-21T18:46:38.827Z,-2.90
2022-11-21T18:49:07.841Z,-2.90
2022-11-21T18:51:36.118Z,-2.90
2022-11-21T18:54:07.414Z,-2.90
2022-11-21T18:56:35.658Z,-2.80
2022-11-21T18:59:04.402Z,-2.80
2022-11-21T19:01:33.030Z,-2.80
2022-11-21T19:04:00.182Z,-2.80
2022-11-21T19:06:28.009Z,-2.80
2022-11-21T19:08:57.227Z,-2.80
2022-11-21T19:11:26.417Z,-2.80
2022-11-21T19:13:55.166Z,-2.80
2022-11-21T19:16:27.204Z,-2.80
2022-11-21T19:19:26.391Z,-2.80
2022-11-21T19:21:42.474Z,-2.80
2022-11-21T19:24:13.969Z,-2.80
2022-11-21T19:26:41.484Z,-2.80
2022-11-21T19:29:08.752Z,-2.70
2022-11-21T19:31:39.362Z,-2.70
2022-11-21T19:34:11.708Z,-2.70
2022-11-21T19:36:39.592Z,-2.70
2022-11-21T19:39:06.734Z,-2.70
2022-11-21T19:41:33.664Z,-2.80
2022-11-21T19:44:01.779Z,-2.70
2022-11-21T19:46:32.185Z,-2.70
2022-11-21T19:48:59.928Z,-2.70
2022-11-21T19:51:37.858Z,-2.70
2022-11-21T19:54:06.408Z,-2.70
2022-11-21T19:56:34.151Z,-2.70
2022-11-21T19:59:01.262Z,-2.70
2022-11-21T20:01:30.496Z,-2.70
2022-11-21T20:03:59.815Z,-2.70
2022-11-21T20:06:29.078Z,-2.70
2022-11-21T20:09:01.393Z,-2.70
2022-11-21T20:11:30.674Z,-2.70
2022-11-21T20:13:58.615Z,-2.60
2022-11-21T20:16:28.605Z,-2.60
2022-11-21T20:18:58.239Z,-2.60
2022-11-21T20:21:25.494Z,-2.50
2022-11-21T20:23:53.212Z,-2.60
2022-11-21T20:26:22.254Z,-2.60
2022-11-21T20:28:49.586Z,-2.50
2022-11-21T20:31:19.123Z,-2.50
2022-11-21T20:33:48.589Z,-2.50
2022-11-21T20:36:23.604Z,-2.50
2022-11-21T20:39:01.421Z,-2.50
2022-11-21T20:41:30.824Z,-2.50
2022-11-21T20:44:53.137Z,-2.40
2022-11-21T20:46:47.585Z,-2.40
2022-11-21T20:49:14.650Z,-2.40
2022-11-21T20:54:30.676Z,-2.40
2022-11-21T20:56:57.821Z,-2.40
2022-11-21T20:59:26.474Z,-2.40
2022-11-21T21:01:53.614Z,-2.40
2022-11-21T21:04:20.616Z,-2.40
2022-11-21T21:06:47.587Z,-2.40
2022-11-21T21:09:14.465Z,-2.40
2022-11-21T21:11:56.695Z,-2.40
2022-11-21T21:14:23.641Z,-2.40
2022-11-21T21:16:50.855Z,-2.40
2022-11-21T21:19:18.390Z,-2.30
2022-11-21T21:21:45.398Z,-2.30
2022-11-21T21:24:13.430Z,-2.40
2022-11-21T21:26:43.628Z,-2.30
2022-11-21T21:29:12.479Z,-2.30
2022-11-21T21:31:41.769Z,-2.30
2022-11-21T21:34:11.033Z,-2.30
2022-11-21T21:36:37.987Z,-2.30
2022-11-21T21:39:04.985Z,-2.30
2022-11-21T21:41:32.303Z,-2.30
2022-11-21T21:43:59.450Z,-2.30
2022-11-21T21:46:27.931Z,-2.30
2022-11-21T21:48:58.299Z,-2.30
2022-11-21T21:51:26.922Z,-2.30
2022-11-21T21:53:54.989Z,-2.30
2022-11-21T21:56:23.788Z,-2.20
2022-11-21T21:58:51.911Z,-2.20
2022-11-21T22:01:24.739Z,-2.20
2022-11-21T22:03:56.470Z,-2.20
2022-11-21T22:06:23.773Z,-2.20
2022-11-21T22:08:51.265Z,-2.20
2022-11-21T22:11:20.891Z,-2.20
2022-11-21T22:13:51.938Z,-2.20
2022-11-21T22:16:18.905Z,-2.20
2022-11-21T22:18:45.981Z,-2.20
2022-11-21T22:21:13.625Z,-2.20
2022-11-21T22:24:02.495Z,-2.20
2022-11-21T22:26:27.871Z,-2.20
2022-11-21T22:28:54.806Z,-2.10
2022-11-21T22:31:21.984Z,-2.10
2022-11-21T22:33:49.016Z,-2.10
2022-11-21T22:36:18.182Z,-2.10
2022-11-21T22:38:45.630Z,-2.10
2022-11-21T22:41:15.400Z,-2.10
2022-11-21T22:43:43.019Z,-2.10
2022-11-21T22:46:12.502Z,-2.10
2022-11-21T22:48:39.971Z,-2.10
2022-11-21T22:51:07.647Z,-2.10
2022-11-21T22:53:40.062Z,-2.10
2022-11-21T22:56:10.230Z,-2.10
2022-11-21T22:58:40.300Z,-2.10
2022-11-21T23:01:21.592Z,-2.10
2022-11-21T23:03:49.477Z,-2.10
2022-11-21T23:06:20.557Z,-2.00
2022-11-21T23:08:48.236Z,-2.00
2022-11-21T23:11:22.777Z,-2.00
2022-11-21T23:13:50.068Z,-2.10
2022-11-21T23:16:17.721Z,-2.10
2022-11-21T23:18:45.414Z,-2.10
2022-11-21T23:21:13.201Z,-2.00
2022-11-21T23:23:40.623Z,-2.00
2022-11-21T23:26:08.024Z,-2.00
2022-11-21T23:28:35.015Z,-2.00
2022-11-21T23:31:02.011Z,-2.00
2022-11-21T23:33:29.081Z,-2.00
